Kenton, OK (73946)

11:21 PM CDT on September 17, 2014 (GMT -0500)
Clayton Municipal | Change Station
CLOSE
Current Station
Airport
Location: Clayton,
Elevation: 4970 ft
Nearby Weather Stations

Elev 4970 ft 36.45 °N, 103.15 °W | Updated 26 minutes ago

Partly Cloudy
Partly Cloudy
64 °F
Feels Like 64 °F
N
8
Wind Variable Wind from WSW

Today
High -- | Low -- °F
--% Chance of Precip.
Yesterday
High -- | Low -- °F
Precip. -- in
7:35 AM 7:56 PM
Waning Crescent, 30% visible
Pressure 29.89 in
Visibility 10.0 miles
Clouds Clear
Dew Point 51 °F
Humidity 63%
Rainfall 0.00 in
Snow Depth Not available.
UV 0 out of 12
Pollen 6.20 out of 12
Air Quality Not available.
Flu Activity Not available.
METAR KCAO 180355Z AUTO 25007KT 10SM CLR 18/11 A3007 RMK AO2 SLP121 T01780106

More Conditions Fewer Conditions

Pressure 29.89 in
Visibility 10.0 miles
Clouds Clear
Dew Point 51 °F
Humidity 63%
Rainfall 0.00 in
Snow Depth Not available.
UV 0 out of 12
Pollen 6.20 out of 12
Air Quality Not available.
Flu Activity Not available.
METAR KCAO 180355Z AUTO 25007KT 10SM CLR 18/11 A3007 RMK AO2 SLP121 T01780106

More Conditions Fewer Conditions

10-Day Weather Forecast

Almanac

Astronomy

Sep. 17, 2014 Rise Set
Actual Time 7:35 AM CDT 7:56 PM CDT
Civil Twilight 7:09 AM CDT 8:21 PM CDT
Nautical Twilight 6:39 AM CDT 8:52 PM CDT
Astronomical Twilight 6:08 AM CDT 9:23 PM CDT
Moon 1:43 AM CDT (9/17) 4:01 PM CDT (9/17)
Length of Visible Light 13h 12m
Length of Day
12h 20m
Tomorrow will be 2m 20s shorter.
Waning Crescent, 30% of the Moon is Illuminated
Sep 18
Waning Crescent
Sep 24
New
Oct 1
First Quarter
Oct 8
Full
Oct 15
Last Quarter

Today's Extremes

State Highs State Lows

Community

WunderPhotos

Upload Photos

1,754,292 photos uploaded!

Nearby

Snow Depth

Station Depth Elevation
No new snow has been reported.

Earthquake Activity

City Distance Mag. Time & Date
No recent earthquake activity has been reported nearby.
Minimum magnitude displayed is 2.5.

Coastal Water Temperatures

Place Temperature
No Stations Reporting

Nearby Weather Stations